createdAt,value
2019-03-05T00:00:02.112Z,7.14
2019-03-05T00:02:35.085Z,7.16
2019-03-05T00:05:07.971Z,7.14
2019-03-05T00:07:39.895Z,7.13
2019-03-05T00:10:12.960Z,7.11
2019-03-05T00:12:44.172Z,7.13
2019-03-05T00:15:18.299Z,7.09
2019-03-05T00:17:49.081Z,7.10
2019-03-05T00:20:19.996Z,7.11
2019-03-05T00:22:51.579Z,7.06
2019-03-05T00:25:25.659Z,7.08
2019-03-05T00:27:59.858Z,7.07
2019-03-05T00:30:34.436Z,7.07
2019-03-05T00:33:09.194Z,7.07
2019-03-05T00:35:41.378Z,7.03
2019-03-05T00:38:16.204Z,7.06
2019-03-05T00:40:50.180Z,7.00
2019-03-05T00:43:24.746Z,7.01
2019-03-05T00:45:58.678Z,6.97
2019-03-05T00:48:32.855Z,6.96
2019-03-05T00:51:07.196Z,6.92
2019-03-05T00:53:40.178Z,6.83
2019-03-05T00:56:14.319Z,6.76
2019-03-05T00:58:48.876Z,6.71
2019-03-05T01:01:23.161Z,6.67
2019-03-05T01:03:57.202Z,6.65
2019-03-05T01:06:28.254Z,6.58
2019-03-05T01:08:59.406Z,6.54
2019-03-05T01:11:30.056Z,6.50
2019-03-05T01:14:00.955Z,6.47
2019-03-05T01:16:33.710Z,6.41
2019-03-05T01:19:05.294Z,6.35
2019-03-05T01:21:36.161Z,6.32
2019-03-05T01:24:10.300Z,6.26
2019-03-05T01:26:41.265Z,6.24
2019-03-05T01:29:12.227Z,6.20
2019-03-05T01:31:44.826Z,6.16
2019-03-05T01:34:17.225Z,6.17
2019-03-05T01:36:50.335Z,6.11
2019-03-05T01:39:23.115Z,6.10
2019-03-05T01:41:54.278Z,6.09
2019-03-05T01:44:25.711Z,6.07
2019-03-05T01:46:56.579Z,6.08
2019-03-05T01:49:27.366Z,6.07
2019-03-05T01:51:58.347Z,6.07
2019-03-05T01:54:29.535Z,6.08
2019-03-05T01:57:01.260Z,6.06
2019-03-05T01:59:32.382Z,6.10
2019-03-05T02:02:04.427Z,6.12
2019-03-05T02:04:35.567Z,6.11
2019-03-05T02:07:07.993Z,6.12
2019-03-05T02:09:38.927Z,6.13
2019-03-05T02:12:09.899Z,6.10
2019-03-05T02:14:40.827Z,6.07
2019-03-05T02:17:11.939Z,6.04
2019-03-05T02:19:45.228Z,6.01
2019-03-05T02:22:19.356Z,6.02
2019-03-05T02:24:53.483Z,5.97
2019-03-05T02:27:27.995Z,5.91
2019-03-05T02:30:01.909Z,5.88
2019-03-05T02:32:36.270Z,5.82
2019-03-05T02:35:10.507Z,5.81
2019-03-05T02:37:44.706Z,5.80
2019-03-05T02:40:19.216Z,5.80
2019-03-05T02:42:53.438Z,5.82
2019-03-05T02:45:31.411Z,5.84
2019-03-05T02:48:03.733Z,5.84
2019-03-05T02:50:37.943Z,5.89
2019-03-05T02:53:12.079Z,5.94
2019-03-05T02:55:46.208Z,5.99
2019-03-05T02:58:16.451Z,6.01
2019-03-05T03:00:49.048Z,6.03
2019-03-05T03:03:21.471Z,6.06
2019-03-05T03:05:54.899Z,6.08
2019-03-05T03:08:25.765Z,6.09
2019-03-05T03:10:56.535Z,6.17
2019-03-05T03:13:28.640Z,6.19
2019-03-05T03:15:59.585Z,6.16
2019-03-05T03:18:30.543Z,6.17
2019-03-05T03:21:01.404Z,6.21
2019-03-05T03:23:32.545Z,6.23
2019-03-05T03:26:03.440Z,6.24
2019-03-05T03:28:34.416Z,6.25
2019-03-05T03:31:05.531Z,6.28
2019-03-05T03:33:36.882Z,6.30
2019-03-05T03:36:08.055Z,6.30
2019-03-05T03:38:38.937Z,6.29
2019-03-05T03:41:09.877Z,6.35
2019-03-05T03:43:40.951Z,6.32
2019-03-05T03:46:12.171Z,6.27
2019-03-05T03:48:43.256Z,6.28
2019-03-05T03:51:14.430Z,6.25
2019-03-05T03:53:45.623Z,6.18
2019-03-05T03:56:17.152Z,6.12
2019-03-05T03:58:48.252Z,6.08
2019-03-05T04:01:19.801Z,6.01
2019-03-05T04:03:51.445Z,5.96
2019-03-05T04:06:22.676Z,5.89
2019-03-05T04:08:53.640Z,5.86
2019-03-05T04:11:24.831Z,5.88
2019-03-05T04:13:59.540Z,5.77
2019-03-05T04:16:28.913Z,5.77
2019-03-05T04:19:01.825Z,5.80
2019-03-05T04:21:33.379Z,5.78
2019-03-05T04:24:04.350Z,5.77
2019-03-05T04:26:35.713Z,5.76
2019-03-05T04:29:06.627Z,5.71
2019-03-05T04:31:38.023Z,5.69
2019-03-05T04:34:09.697Z,5.74
2019-03-05T04:36:41.164Z,5.71
2019-03-05T04:39:12.819Z,5.73
2019-03-05T04:41:43.860Z,5.73
2019-03-05T04:44:16.509Z,5.72
2019-03-05T04:46:49.372Z,5.74
2019-03-05T04:49:22.066Z,5.75
2019-03-05T04:51:54.675Z,5.74
2019-03-05T04:54:25.741Z,5.74
2019-03-05T04:56:56.756Z,5.73
2019-03-05T04:59:27.572Z,5.71
2019-03-05T05:01:58.319Z,5.73
2019-03-05T05:04:29.549Z,5.72
2019-03-05T05:07:01.121Z,5.73
2019-03-05T05:09:32.077Z,5.75
2019-03-05T05:12:03.168Z,5.78
2019-03-05T05:14:34.786Z,5.81
2019-03-05T05:17:05.796Z,5.82
2019-03-05T05:19:36.712Z,5.85
2019-03-05T05:22:09.243Z,5.87
2019-03-05T05:24:40.551Z,5.88
2019-03-05T05:27:11.495Z,5.91
2019-03-05T05:29:42.472Z,5.98
2019-03-05T05:32:13.673Z,6.01
2019-03-05T05:34:44.315Z,6.07
2019-03-05T05:37:15.138Z,6.14
2019-03-05T05:39:49.437Z,6.19
2019-03-05T05:42:20.447Z,6.24
2019-03-05T05:44:51.542Z,6.26
2019-03-05T05:47:22.677Z,6.29
2019-03-05T05:49:53.645Z,6.32
2019-03-05T05:52:24.857Z,6.35
2019-03-05T05:54:55.883Z,6.36
2019-03-05T05:57:27.038Z,6.40
2019-03-05T05:59:57.809Z,6.41
2019-03-05T06:02:30.582Z,6.41
2019-03-05T06:05:01.174Z,6.44
2019-03-05T06:07:33.496Z,6.46
2019-03-05T06:10:07.079Z,6.44
2019-03-05T06:12:39.103Z,6.47
2019-03-05T06:15:13.533Z,6.49
2019-03-05T06:17:44.689Z,6.51
2019-03-05T06:20:17.091Z,6.51
2019-03-05T06:22:47.882Z,6.53
2019-03-05T06:25:18.854Z,6.53
2019-03-05T06:27:54.399Z,6.57
2019-03-05T06:30:28.873Z,6.58
2019-03-05T06:32:59.788Z,6.63
2019-03-05T06:35:30.601Z,6.59
2019-03-05T06:38:03.585Z,6.62
2019-03-05T06:40:35.093Z,6.65
2019-03-05T06:43:06.683Z,6.67
2019-03-05T06:45:39.207Z,6.69
2019-03-05T06:48:10.083Z,6.71
2019-03-05T06:50:40.934Z,6.73
2019-03-05T06:53:11.976Z,6.84
2019-03-05T06:55:43.011Z,6.81
2019-03-05T06:58:14.582Z,6.81
2019-03-05T07:00:45.692Z,6.83
2019-03-05T07:03:16.813Z,6.86
2019-03-05T07:05:50.970Z,6.91
2019-03-05T07:08:23.169Z,6.92
2019-03-05T07:10:57.168Z,6.90
2019-03-05T07:13:27.742Z,6.91
2019-03-05T07:16:02.613Z,6.94
2019-03-05T07:18:36.694Z,6.96
2019-03-05T07:21:10.525Z,6.94
2019-03-05T07:23:44.349Z,6.95
2019-03-05T07:26:15.213Z,6.97
2019-03-05T07:28:45.740Z,6.94
2019-03-05T07:31:16.293Z,6.91
2019-03-05T07:33:47.967Z,6.91
2019-03-05T07:36:19.787Z,6.91
2019-03-05T07:38:50.626Z,6.92
2019-03-05T07:41:21.461Z,6.91
2019-03-05T07:43:52.209Z,6.86
2019-03-05T07:46:23.010Z,6.88
2019-03-05T07:48:53.633Z,6.82
2019-03-05T07:51:24.251Z,6.77
2019-03-05T07:53:54.669Z,6.81
2019-03-05T07:56:27.342Z,6.81
2019-03-05T07:58:57.904Z,6.78
2019-03-05T08:01:28.284Z,6.72
2019-03-05T08:03:59.021Z,6.69
2019-03-05T08:06:29.522Z,6.71
2019-03-05T08:09:04.969Z,6.71
2019-03-05T08:11:36.518Z,6.73
2019-03-05T08:14:08.290Z,6.79
2019-03-05T08:16:39.117Z,6.78
2019-03-05T08:19:09.770Z,6.77
2019-03-05T08:21:40.498Z,6.80
2019-03-05T08:24:11.236Z,6.87
2019-03-05T08:26:42.024Z,6.93
2019-03-05T08:29:12.657Z,6.91
2019-03-05T08:31:43.202Z,6.86
2019-03-05T08:34:15.178Z,6.90
2019-03-05T08:36:45.848Z,6.93
2019-03-05T08:39:16.718Z,6.96
2019-03-05T08:41:47.264Z,6.95
2019-03-05T08:44:17.812Z,6.96
2019-03-05T08:46:48.251Z,7.00
2019-03-05T08:49:18.884Z,7.01
2019-03-05T08:51:49.580Z,7.01
2019-03-05T08:54:20.043Z,7.08
2019-03-05T08:56:50.981Z,7.19
2019-03-05T08:59:21.497Z,7.28
2019-03-05T09:01:52.136Z,7.40
2019-03-05T09:04:22.756Z,7.45
2019-03-05T09:06:54.253Z,7.48
2019-03-05T09:09:24.837Z,7.55
2019-03-05T09:11:56.596Z,7.57
2019-03-05T09:14:27.559Z,7.66
2019-03-05T09:16:58.039Z,7.60
2019-03-05T09:19:29.517Z,7.68
2019-03-05T09:22:00.562Z,7.72
2019-03-05T09:24:31.093Z,7.84
2019-03-05T09:27:01.596Z,7.93
2019-03-05T09:29:32.245Z,7.96
2019-03-05T09:32:02.857Z,7.97
2019-03-05T09:34:33.377Z,7.94
2019-03-05T09:37:04.058Z,8.16
2019-03-05T09:39:34.493Z,8.24
2019-03-05T09:42:05.156Z,8.35
2019-03-05T09:44:35.607Z,8.39
2019-03-05T09:47:06.140Z,8.39
2019-03-05T09:49:36.595Z,8.38
2019-03-05T09:52:06.941Z,8.70
2019-03-05T09:54:37.334Z,8.70
2019-03-05T09:57:07.819Z,8.69
2019-03-05T09:59:38.342Z,8.66
2019-03-05T10:02:09.232Z,8.64
2019-03-05T10:04:40.076Z,8.62
2019-03-05T10:07:18.584Z,8.60
2019-03-05T10:09:42.671Z,8.51
2019-03-05T10:12:13.307Z,8.45
2019-03-05T10:14:43.895Z,8.47
2019-03-05T10:17:14.371Z,8.52
2019-03-05T10:19:45.209Z,8.60
2019-03-05T10:22:16.189Z,8.66
2019-03-05T10:24:47.076Z,8.79
2019-03-05T10:27:18.091Z,8.88
2019-03-05T10:29:48.608Z,9.03
2019-03-05T10:32:20.237Z,9.11
2019-03-05T10:34:50.646Z,9.06
2019-03-05T10:37:21.206Z,9.07
2019-03-05T10:39:52.923Z,9.10
2019-03-05T10:42:31.906Z,8.97
2019-03-05T10:45:12.539Z,8.88
2019-03-05T10:47:43.034Z,8.82
2019-03-05T10:50:21.806Z,8.66
2019-03-05T10:52:53.594Z,8.67
2019-03-05T10:55:26.557Z,8.64
2019-03-05T10:57:56.573Z,8.62
2019-03-05T11:00:31.665Z,8.63
2019-03-05T11:03:03.217Z,8.65
2019-03-05T11:05:36.191Z,8.71
2019-03-05T11:08:06.938Z,8.76
2019-03-05T11:10:38.280Z,8.84
2019-03-05T11:13:09.253Z,8.94
2019-03-05T11:15:40.086Z,9.12
2019-03-05T11:18:11.759Z,9.24
2019-03-05T11:20:42.381Z,9.29
2019-03-05T11:23:13.277Z,9.45
2019-03-05T11:25:44.056Z,9.55
2019-03-05T11:28:15.036Z,9.59
2019-03-05T11:30:45.791Z,9.62
2019-03-05T11:33:18.375Z,9.71
2019-03-05T11:35:51.361Z,9.80
2019-03-05T11:38:22.177Z,9.79
2019-03-05T11:40:53.115Z,9.94
2019-03-05T11:43:24.528Z,10.09
2019-03-05T11:45:55.196Z,10.04
2019-03-05T11:48:26.050Z,10.19
2019-03-05T11:50:57.458Z,10.50
2019-03-05T11:53:28.132Z,10.64
2019-03-05T11:55:58.715Z,10.41
2019-03-05T11:58:29.557Z,10.21
2019-03-05T12:01:02.306Z,9.96
2019-03-05T12:03:34.296Z,10.04
2019-03-05T12:06:04.917Z,9.98
2019-03-05T12:08:36.259Z,9.98
2019-03-05T12:11:07.409Z,9.89
2019-03-05T12:13:38.177Z,10.00
2019-03-05T12:16:10.139Z,10.08
2019-03-05T12:18:40.860Z,10.09
2019-03-05T12:21:11.457Z,9.93
2019-03-05T12:23:46.743Z,9.87
2019-03-05T12:26:14.809Z,9.88
2019-03-05T12:28:45.204Z,9.93
2019-03-05T12:31:19.479Z,9.91
2019-03-05T12:33:50.239Z,9.71
2019-03-05T12:36:45.903Z,9.59
2019-03-05T12:39:23.538Z,9.55
2019-03-05T12:41:54.729Z,9.36
2019-03-05T12:44:25.290Z,9.19
2019-03-05T12:46:56.456Z,8.21
2019-03-05T12:49:27.175Z,7.61
2019-03-05T12:51:57.719Z,6.78
2019-03-05T12:54:28.485Z,6.30
2019-03-05T12:56:59.377Z,6.08
2019-03-05T12:59:30.160Z,6.03
2019-03-05T13:02:00.820Z,5.90
2019-03-05T13:04:31.418Z,5.78
2019-03-05T13:07:02.377Z,5.69
2019-03-05T13:09:33.093Z,5.71
2019-03-05T13:12:05.186Z,5.70
2019-03-05T13:14:38.229Z,5.62
2019-03-05T13:17:09.279Z,5.49
2019-03-05T13:19:40.168Z,5.37
2019-03-05T13:22:11.057Z,5.43
2019-03-05T13:24:42.021Z,5.58
2019-03-05T13:27:13.027Z,5.79
2019-03-05T13:29:43.985Z,5.97
2019-03-05T13:32:16.834Z,6.02
2019-03-05T13:34:47.617Z,6.10
2019-03-05T13:37:18.378Z,6.18
2019-03-05T13:39:50.569Z,6.29
2019-03-05T13:42:22.331Z,6.44
2019-03-05T13:44:53.152Z,6.59
2019-03-05T13:47:23.652Z,6.75
2019-03-05T13:49:59.992Z,6.89
2019-03-05T13:52:35.939Z,6.96
2019-03-05T13:55:09.577Z,7.01
2019-03-05T13:57:43.760Z,7.06
2019-03-05T14:00:15.188Z,7.18
2019-03-05T14:02:52.936Z,7.27
2019-03-05T14:05:25.469Z,7.40
2019-03-05T14:08:00.465Z,7.45
2019-03-05T14:10:31.319Z,7.50
2019-03-05T14:13:01.883Z,7.52
2019-03-05T14:15:33.086Z,7.51
2019-03-05T14:18:03.811Z,7.57
2019-03-05T14:20:35.168Z,7.57
2019-03-05T14:23:06.157Z,7.63
2019-03-05T14:25:37.776Z,7.71
2019-03-05T14:28:08.620Z,7.78
2019-03-05T14:30:39.573Z,7.84
2019-03-05T14:33:10.049Z,7.83
2019-03-05T14:35:41.286Z,7.87
2019-03-05T14:38:12.099Z,7.89
2019-03-05T14:40:42.970Z,7.94
2019-03-05T14:43:13.599Z,7.93
2019-03-05T14:45:44.410Z,7.96
2019-03-05T14:48:14.999Z,8.05
2019-03-05T14:50:45.959Z,8.19
2019-03-05T14:53:18.046Z,8.30
2019-03-05T14:55:49.026Z,8.31
2019-03-05T14:58:19.673Z,8.28
2019-03-05T15:00:50.802Z,8.26
2019-03-05T15:03:40.823Z,8.27
2019-03-05T15:06:11.518Z,8.28
2019-03-05T15:08:42.398Z,8.33
2019-03-05T15:11:13.418Z,8.33
2019-03-05T15:13:44.623Z,8.42
2019-03-05T15:16:15.905Z,8.45
2019-03-05T15:18:46.723Z,8.57
2019-03-05T15:21:17.420Z,8.67
2019-03-05T15:23:48.169Z,8.72
2019-03-05T15:26:18.865Z,8.78
2019-03-05T15:28:56.370Z,8.84
2019-03-05T15:31:22.960Z,8.84
2019-03-05T15:33:54.917Z,8.92
2019-03-05T15:36:25.362Z,8.93
2019-03-05T15:38:55.880Z,8.86
2019-03-05T15:41:27.884Z,8.77
2019-03-05T15:43:58.864Z,8.67
2019-03-05T15:46:29.603Z,8.63
2019-03-05T15:49:00.544Z,8.62
2019-03-05T15:51:31.001Z,8.57
2019-03-05T15:54:01.899Z,8.54
2019-03-05T15:56:32.398Z,8.52
2019-03-05T15:59:03.117Z,8.47
2019-03-05T16:01:33.999Z,8.42
2019-03-05T16:04:04.662Z,8.37
2019-03-05T16:06:35.504Z,8.34
2019-03-05T16:09:09.503Z,8.27
2019-03-05T16:11:40.741Z,8.19
2019-03-05T16:14:14.744Z,8.14
2019-03-05T16:16:53.286Z,8.12
2019-03-05T16:19:27.105Z,8.07
2019-03-05T16:21:57.700Z,7.97
2019-03-05T16:24:28.513Z,7.73
2019-03-05T16:27:00.041Z,7.56
2019-03-05T16:29:31.058Z,7.36
2019-03-05T16:32:03.510Z,7.19
2019-03-05T16:34:35.738Z,7.07
2019-03-05T16:37:08.260Z,7.08
2019-03-05T16:39:40.404Z,7.01
2019-03-05T16:42:15.290Z,6.91
2019-03-05T16:44:48.357Z,6.80
2019-03-05T16:47:24.838Z,6.64
2019-03-05T16:49:55.407Z,6.58
2019-03-05T16:52:27.619Z,6.57
2019-03-05T16:54:59.848Z,6.42
2019-03-05T16:57:35.352Z,6.36
2019-03-05T17:00:10.975Z,6.32
2019-03-05T17:02:52.918Z,6.22
2019-03-05T17:05:31.111Z,6.12
2019-03-05T17:08:03.078Z,6.06
2019-03-05T17:10:36.476Z,6.03
2019-03-05T17:13:11.579Z,5.91
2019-03-05T17:15:42.620Z,5.93
2019-03-05T17:18:13.731Z,5.91
2019-03-05T17:20:44.364Z,5.84
2019-03-05T17:23:15.416Z,5.73
2019-03-05T17:25:49.516Z,5.65
2019-03-05T17:28:21.652Z,5.58
2019-03-05T17:30:52.230Z,5.57
2019-03-05T17:33:23.132Z,5.58
2019-03-05T17:35:54.215Z,5.60
2019-03-05T17:38:25.239Z,5.58
2019-03-05T17:40:56.293Z,5.54
2019-03-05T17:43:27.052Z,5.58
2019-03-05T17:45:58.779Z,5.55
2019-03-05T17:48:29.418Z,5.54
2019-03-05T17:51:00.919Z,5.49
2019-03-05T17:53:31.784Z,5.48
2019-03-05T17:56:03.388Z,5.45
2019-03-05T17:58:34.769Z,5.48
2019-03-05T18:01:06.818Z,5.47
2019-03-05T18:03:37.913Z,5.53
2019-03-05T18:06:08.542Z,5.46
2019-03-05T18:08:39.576Z,5.49
2019-03-05T18:11:10.346Z,5.48
2019-03-05T18:13:41.165Z,5.51
2019-03-05T18:16:12.477Z,5.53
2019-03-05T18:18:43.398Z,5.49
2019-03-05T18:21:14.859Z,5.49
2019-03-05T18:23:45.942Z,5.50
2019-03-05T18:26:16.569Z,5.48
2019-03-05T18:28:46.975Z,5.49
2019-03-05T18:31:17.814Z,5.44
2019-03-05T18:33:48.520Z,5.41
2019-03-05T18:36:19.269Z,5.38
2019-03-05T18:38:49.658Z,5.36
2019-03-05T18:41:21.221Z,5.41
2019-03-05T18:43:51.838Z,5.38
2019-03-05T18:46:23.074Z,5.33
2019-03-05T18:48:55.924Z,5.31
2019-03-05T18:51:26.839Z,5.35
2019-03-05T18:53:57.980Z,5.35
2019-03-05T18:56:29.158Z,5.29
2019-03-05T18:59:00.861Z,5.26
2019-03-05T19:01:33.358Z,5.28
2019-03-05T19:04:03.750Z,5.24
2019-03-05T19:06:34.653Z,5.28
2019-03-05T19:09:06.376Z,5.27
2019-03-05T19:12:00.655Z,5.27
2019-03-05T19:14:36.678Z,5.28
2019-03-05T19:17:08.410Z,5.25
2019-03-05T19:19:39.258Z,5.23
2019-03-05T19:22:10.091Z,5.26
2019-03-05T19:24:41.302Z,5.24
2019-03-05T19:27:13.816Z,5.29
2019-03-05T19:29:45.375Z,5.28
2019-03-05T19:32:16.457Z,5.25
2019-03-05T19:34:47.124Z,5.22
2019-03-05T19:37:17.546Z,5.20
2019-03-05T19:39:50.845Z,5.16
2019-03-05T19:42:22.676Z,5.12
2019-03-05T19:44:53.695Z,5.16
2019-03-05T19:47:49.485Z,5.11
2019-03-05T19:50:22.756Z,5.11
2019-03-05T19:52:53.996Z,5.06
2019-03-05T19:55:28.136Z,5.07
2019-03-05T19:58:00.399Z,5.12
2019-03-05T20:00:33.318Z,5.06
2019-03-05T20:03:05.357Z,5.02
2019-03-05T20:05:36.282Z,5.04
2019-03-05T20:08:08.042Z,5.03
2019-03-05T20:10:39.019Z,4.95
2019-03-05T20:13:10.400Z,4.93
2019-03-05T20:15:42.064Z,4.86
2019-03-05T20:18:13.758Z,4.79
2019-03-05T20:20:44.638Z,4.82
2019-03-05T20:23:16.276Z,4.83
2019-03-05T20:25:47.760Z,4.78
2019-03-05T20:28:18.237Z,4.80
2019-03-05T20:30:51.623Z,4.75
2019-03-05T20:33:25.100Z,4.67
2019-03-05T20:35:57.652Z,4.68
2019-03-05T20:38:29.549Z,4.62
2019-03-05T20:41:00.221Z,4.60
2019-03-05T20:43:31.949Z,4.60
2019-03-05T20:46:07.473Z,4.58
2019-03-05T20:48:39.007Z,4.54
2019-03-05T20:51:10.626Z,4.44
2019-03-05T20:53:42.289Z,4.42
2019-03-05T20:56:14.808Z,4.41
2019-03-05T20:58:46.407Z,4.41
2019-03-05T21:01:17.684Z,4.45
2019-03-05T21:03:48.856Z,4.45
2019-03-05T21:06:20.128Z,4.40
2019-03-05T21:08:51.608Z,4.39
2019-03-05T21:11:22.608Z,4.32
2019-03-05T21:13:54.408Z,4.29
2019-03-05T21:16:25.747Z,4.25
2019-03-05T21:18:56.735Z,4.26
2019-03-05T21:21:27.935Z,4.21
2019-03-05T21:23:59.214Z,4.21
2019-03-05T21:26:30.094Z,4.23
2019-03-05T21:29:02.079Z,4.22
2019-03-05T21:31:33.596Z,4.21
2019-03-05T21:34:04.992Z,4.24
2019-03-05T21:36:36.545Z,4.25
2019-03-05T21:39:10.755Z,4.27
2019-03-05T21:41:42.275Z,4.25
2019-03-05T21:44:13.275Z,4.27
2019-03-05T21:46:44.317Z,4.28
2019-03-05T21:49:15.674Z,4.33
2019-03-05T21:51:46.556Z,4.34
2019-03-05T21:54:18.956Z,4.36
2019-03-05T21:56:49.959Z,4.37
2019-03-05T21:59:20.980Z,4.37
2019-03-05T22:01:52.036Z,4.40
2019-03-05T22:04:23.235Z,4.39
2019-03-05T22:06:54.518Z,4.40
2019-03-05T22:09:25.835Z,4.38
2019-03-05T22:11:56.957Z,4.40
2019-03-05T22:14:27.981Z,4.40
2019-03-05T22:16:59.180Z,4.41
2019-03-05T22:19:30.180Z,4.37
2019-03-05T22:22:01.342Z,4.36
2019-03-05T22:24:32.338Z,4.36
2019-03-05T22:27:03.063Z,4.34
2019-03-05T22:29:34.270Z,4.31
2019-03-05T22:32:05.082Z,4.32
2019-03-05T22:34:37.448Z,4.25
2019-03-05T22:37:08.459Z,4.27
2019-03-05T22:39:39.640Z,4.29
2019-03-05T22:42:11.468Z,4.29
2019-03-05T22:44:42.616Z,4.31
2019-03-05T22:47:14.048Z,4.26
2019-03-05T22:49:45.207Z,4.26
2019-03-05T22:52:16.577Z,4.29
2019-03-05T22:54:47.982Z,4.28
2019-03-05T22:57:19.492Z,4.28
2019-03-05T22:59:50.554Z,4.26
2019-03-05T23:02:22.002Z,4.24
2019-03-05T23:04:53.078Z,4.21
2019-03-05T23:07:24.665Z,4.17
2019-03-05T23:09:55.951Z,4.13
2019-03-05T23:12:27.681Z,4.15
2019-03-05T23:14:59.118Z,4.10
2019-03-05T23:17:30.506Z,4.09
2019-03-05T23:20:01.514Z,4.08
2019-03-05T23:22:32.579Z,4.07
2019-03-05T23:25:04.181Z,4.01
2019-03-05T23:27:36.255Z,3.98
2019-03-05T23:30:10.284Z,3.97
2019-03-05T23:32:43.029Z,3.92
2019-03-05T23:35:15.153Z,3.89
2019-03-05T23:37:45.948Z,3.88
2019-03-05T23:40:19.761Z,3.86
2019-03-05T23:42:50.762Z,3.81
2019-03-05T23:45:22.266Z,3.78
2019-03-05T23:47:53.366Z,3.78
2019-03-05T23:50:24.005Z,3.81
2019-03-05T23:52:54.827Z,3.73
2019-03-05T23:55:25.831Z,3.76
2019-03-05T23:57:57.049Z,3.73
